createdAt,value
2023-04-06T00:02:05.616Z,-1.10
2023-04-06T00:04:34.947Z,-1.10
2023-04-06T00:07:04.398Z,-1.10
2023-04-06T00:09:33.747Z,-1.10
2023-04-06T00:12:03.141Z,-1.10
2023-04-06T00:14:32.466Z,-1.10
2023-04-06T00:17:01.766Z,-1.10
2023-04-06T00:19:31.432Z,-1.20
2023-04-06T00:22:00.932Z,-1.20
2023-04-06T00:24:30.480Z,-1.30
2023-04-06T00:26:59.713Z,-1.30
2023-04-06T00:29:29.043Z,-1.30
2023-04-06T00:31:58.309Z,-1.20
2023-04-06T00:34:27.624Z,-1.20
2023-04-06T00:36:56.851Z,-1.20
2023-04-06T00:39:26.196Z,-1.30
2023-04-06T00:41:57.645Z,-1.30
2023-04-06T00:44:27.933Z,-1.30
2023-04-06T00:46:57.250Z,-1.30
2023-04-06T00:49:26.572Z,-1.30
2023-04-06T00:51:55.986Z,-1.30
2023-04-06T00:54:25.949Z,-1.30
2023-04-06T00:56:56.515Z,-1.30
2023-04-06T00:59:30.971Z,-1.30
2023-04-06T01:02:01.936Z,-1.20
2023-04-06T01:04:41.085Z,-1.20
2023-04-06T01:07:15.691Z,-1.20
2023-04-06T01:09:55.595Z,-1.30
2023-04-06T01:12:28.545Z,-1.50
2023-04-06T01:14:58.049Z,-1.50
2023-04-06T01:17:29.784Z,-1.50
2023-04-06T01:20:03.709Z,-1.50
2023-04-06T01:22:34.961Z,-1.40
2023-04-06T01:25:06.858Z,-1.40
2023-04-06T01:27:53.902Z,-1.50
2023-04-06T01:30:26.806Z,-1.50
2023-04-06T01:33:03.312Z,-1.40
2023-04-06T01:36:01.412Z,-1.30
2023-04-06T01:38:31.344Z,-1.30
2023-04-06T01:41:00.850Z,-1.30
2023-04-06T01:43:35.857Z,-1.30
2023-04-06T01:46:11.835Z,-1.30
2023-04-06T01:48:44.360Z,-1.30
2023-04-06T01:51:22.104Z,-1.40
2023-04-06T01:54:01.243Z,-1.30
2023-04-06T01:56:52.517Z,-1.30
2023-04-06T01:59:34.989Z,-1.20
2023-04-06T02:02:10.055Z,-1.20
2023-04-06T02:04:41.180Z,-1.20
2023-04-06T02:07:13.710Z,-1.20
2023-04-06T02:09:43.652Z,-1.30
2023-04-06T02:12:20.242Z,-1.30
2023-04-06T02:14:49.539Z,-1.30
2023-04-06T02:17:19.051Z,-1.40
2023-04-06T02:19:48.323Z,-1.40
2023-04-06T02:22:17.592Z,-1.50
2023-04-06T02:24:47.799Z,-1.60
2023-04-06T02:27:17.212Z,-1.60
2023-04-06T02:29:49.848Z,-1.60
2023-04-06T02:32:22.796Z,-1.60
2023-04-06T02:34:52.776Z,-1.60
2023-04-06T02:37:25.102Z,-1.60
2023-04-06T02:39:55.078Z,-1.60
2023-04-06T02:42:24.698Z,-1.60
2023-04-06T02:44:55.351Z,-1.60
2023-04-06T02:47:28.486Z,-1.60
2023-04-06T02:49:57.855Z,-1.70
2023-04-06T02:52:27.344Z,-1.70
2023-04-06T02:54:56.972Z,-1.80
2023-04-06T02:57:30.533Z,-1.80
2023-04-06T02:59:59.760Z,-1.90
2023-04-06T03:02:36.984Z,-1.90
2023-04-06T03:05:11.320Z,-2.00
2023-04-06T03:07:44.974Z,-2.00
2023-04-06T03:10:24.666Z,-2.00
2023-04-06T03:12:57.743Z,-2.00
2023-04-06T03:15:47.606Z,-2.00
2023-04-06T03:18:24.321Z,-2.00
2023-04-06T03:20:55.130Z,-2.00
2023-04-06T03:23:28.512Z,-2.00
2023-04-06T03:26:03.010Z,-2.00
2023-04-06T03:28:32.767Z,-2.00
2023-04-06T03:31:07.392Z,-2.00
2023-04-06T03:34:09.034Z,-2.00
2023-04-06T03:36:39.243Z,-2.00
2023-04-06T03:39:08.984Z,-2.10
2023-04-06T03:41:42.899Z,-2.10
2023-04-06T03:44:28.222Z,-2.10
2023-04-06T03:46:57.599Z,-2.20
2023-04-06T03:49:27.748Z,-2.20
2023-04-06T03:51:57.865Z,-2.20
2023-04-06T03:54:27.197Z,-2.20
2023-04-06T03:56:58.627Z,-2.20
2023-04-06T03:59:29.681Z,-2.20
2023-04-06T04:01:59.035Z,-2.20
2023-04-06T04:04:28.396Z,-2.20
2023-04-06T04:06:57.840Z,-2.20
2023-04-06T04:09:29.853Z,-2.20
2023-04-06T04:11:59.215Z,-2.20
2023-04-06T04:14:28.469Z,-2.20
2023-04-06T04:16:57.762Z,-2.20
2023-04-06T04:19:27.071Z,-2.20
2023-04-06T04:21:57.692Z,-2.30
2023-04-06T04:24:34.339Z,-2.40
2023-04-06T04:27:03.993Z,-2.40
2023-04-06T04:29:35.812Z,-2.40
2023-04-06T04:32:09.313Z,-2.40
2023-04-06T04:34:41.388Z,-2.40
2023-04-06T04:37:14.567Z,-2.40
2023-04-06T04:39:52.450Z,-2.50
2023-04-06T04:42:21.959Z,-2.40
2023-04-06T04:44:54.735Z,-2.40
2023-04-06T04:47:35.581Z,-2.40
2023-04-06T04:50:06.483Z,-2.30
2023-04-06T04:52:36.537Z,-2.30
2023-04-06T04:55:19.662Z,-2.20
2023-04-06T04:57:52.503Z,-2.10
2023-04-06T05:00:27.027Z,-2.00
2023-04-06T05:06:39.877Z,-1.90
2023-04-06T05:09:11.032Z,-1.80
2023-04-06T05:12:07.451Z,-1.70
2023-04-06T05:14:43.634Z,-1.50
2023-04-06T05:17:17.662Z,-1.30
2023-04-06T05:19:47.586Z,-1.30
2023-04-06T05:22:23.195Z,-1.10
2023-04-06T05:25:03.639Z,-1.00
2023-04-06T05:27:34.329Z,-0.80
2023-04-06T05:30:09.531Z,-0.70
2023-04-06T05:32:45.462Z,-0.60
2023-04-06T05:35:15.742Z,-0.50
2023-04-06T05:37:48.576Z,-0.40
2023-04-06T05:40:20.737Z,-0.30
2023-04-06T05:42:50.635Z,-0.20
2023-04-06T05:45:21.647Z,-0.10
2023-04-06T05:47:57.088Z,0.10
2023-04-06T05:50:30.534Z,0.20
2023-04-06T05:53:01.362Z,0.40
2023-04-06T05:58:18.398Z,0.60
2023-04-06T06:00:48.222Z,0.70
2023-04-06T06:03:21.431Z,1.00
2023-04-06T06:06:00.968Z,1.20
2023-04-06T06:08:35.999Z,1.30
2023-04-06T06:11:12.920Z,1.50
2023-04-06T06:13:43.182Z,1.70
2023-04-06T06:16:14.117Z,2.00
2023-04-06T06:18:48.114Z,2.20
2023-04-06T06:21:18.283Z,2.40
2023-04-06T06:23:50.348Z,2.60
2023-04-06T06:26:23.864Z,2.80
2023-04-06T06:28:53.499Z,2.90
2023-04-06T06:31:23.990Z,3.10
2023-04-06T06:33:53.694Z,3.10
2023-04-06T06:36:24.016Z,3.30
2023-04-06T06:38:53.324Z,3.50
2023-04-06T06:41:24.047Z,3.70
2023-04-06T06:43:53.442Z,3.80
2023-04-06T06:46:23.066Z,4.00
2023-04-06T06:48:52.377Z,4.20
2023-04-06T06:51:21.618Z,4.40
2023-04-06T06:53:50.882Z,4.70
2023-04-06T06:56:20.148Z,5.00
2023-04-06T06:58:49.403Z,5.30
2023-04-06T07:01:18.831Z,5.50
2023-04-06T07:03:48.195Z,5.80
2023-04-06T07:06:17.513Z,6.20
2023-04-06T07:08:46.848Z,6.40
2023-04-06T07:11:16.126Z,6.70
2023-04-06T07:13:45.360Z,6.90
2023-04-06T07:16:14.775Z,7.10
2023-04-06T07:18:44.024Z,7.30
2023-04-06T07:21:13.403Z,7.40
2023-04-06T07:23:47.853Z,7.50
2023-04-06T07:26:20.369Z,7.60
2023-04-06T07:28:49.767Z,7.60
2023-04-06T07:31:20.431Z,7.60
2023-04-06T07:33:51.129Z,7.70
2023-04-06T07:36:21.797Z,7.70
2023-04-06T07:38:52.048Z,7.80
2023-04-06T07:41:21.581Z,8.10
2023-04-06T07:43:51.109Z,8.30
2023-04-06T07:46:20.940Z,8.60
2023-04-06T07:48:51.490Z,8.80
2023-04-06T07:51:20.823Z,8.70
2023-04-06T07:53:52.217Z,8.80
2023-04-06T07:56:22.880Z,8.90
2023-04-06T07:58:54.387Z,9.00
2023-04-06T08:01:23.956Z,9.00
2023-04-06T08:03:53.734Z,9.00
2023-04-06T08:06:23.108Z,9.30
2023-04-06T08:08:52.407Z,9.50
2023-04-06T08:11:21.820Z,9.80
2023-04-06T08:13:51.483Z,10.10
2023-04-06T08:16:21.845Z,10.30
2023-04-06T08:19:17.832Z,10.50
2023-04-06T08:21:48.565Z,10.70
2023-04-06T08:24:18.060Z,10.70
2023-04-06T08:26:47.372Z,10.50
2023-04-06T08:29:17.279Z,10.30
2023-04-06T08:31:46.551Z,10.20
2023-04-06T08:34:16.490Z,10.10
2023-04-06T08:36:47.121Z,10.20
2023-04-06T08:39:17.884Z,10.20
2023-04-06T08:41:53.474Z,10.30
2023-04-06T08:44:23.161Z,10.20
2023-04-06T08:46:54.016Z,10.20
2023-04-06T08:49:25.226Z,10.00
2023-04-06T08:51:56.618Z,10.00
2023-04-06T08:54:26.458Z,9.90
2023-04-06T08:57:00.473Z,9.80
2023-04-06T08:59:33.331Z,9.90
2023-04-06T09:02:06.452Z,10.10
2023-04-06T09:04:40.456Z,10.20
2023-04-06T09:07:10.056Z,10.30
2023-04-06T09:09:44.536Z,10.50
2023-04-06T09:12:33.250Z,10.50
2023-04-06T09:15:06.340Z,10.50
2023-04-06T09:17:37.874Z,10.50
2023-04-06T09:20:08.396Z,10.60
2023-04-06T09:22:44.575Z,10.70
2023-04-06T09:25:24.937Z,10.80
2023-04-06T09:28:04.064Z,10.80
2023-04-06T09:30:35.983Z,10.90
2023-04-06T09:33:05.324Z,11.10
2023-04-06T09:35:36.665Z,11.10
2023-04-06T09:38:16.620Z,10.90
2023-04-06T09:41:00.080Z,11.00
2023-04-06T09:43:32.454Z,11.20
2023-04-06T09:46:05.011Z,11.30
2023-04-06T09:48:36.300Z,11.40
2023-04-06T09:51:08.080Z,11.30
2023-04-06T09:53:40.232Z,11.20
2023-04-06T09:56:14.223Z,11.40
2023-04-06T09:58:46.880Z,11.40
2023-04-06T10:01:21.801Z,11.60
2023-04-06T10:03:56.277Z,11.50
2023-04-06T10:06:29.707Z,11.20
2023-04-06T10:08:59.107Z,11.20
2023-04-06T10:11:29.903Z,11.30
2023-04-06T10:13:59.444Z,11.30
2023-04-06T10:16:30.507Z,11.40
2023-04-06T10:19:25.492Z,11.50
2023-04-06T10:21:59.213Z,11.60
2023-04-06T10:25:39.091Z,11.60
2023-04-06T10:28:10.528Z,11.80
2023-04-06T10:30:46.711Z,12.00
2023-04-06T10:33:17.881Z,12.20
2023-04-06T10:35:47.723Z,12.30
2023-04-06T10:38:22.089Z,12.40
2023-04-06T10:40:51.423Z,12.60
2023-04-06T10:43:22.631Z,12.40
2023-04-06T10:46:01.300Z,12.40
2023-04-06T10:48:47.861Z,12.40
2023-04-06T10:51:19.556Z,12.20
2023-04-06T10:53:50.043Z,12.40
2023-04-06T10:56:23.522Z,12.60
2023-04-06T10:58:54.406Z,12.80
2023-04-06T11:01:26.101Z,12.70
2023-04-06T11:04:00.235Z,12.50
2023-04-06T11:06:32.534Z,12.50
2023-04-06T11:09:01.892Z,12.20
2023-04-06T11:11:31.292Z,12.10
2023-04-06T11:14:02.183Z,12.00
2023-04-06T11:16:33.975Z,12.10
2023-04-06T11:19:05.070Z,12.20
2023-04-06T11:21:36.644Z,12.10
2023-04-06T11:24:21.039Z,12.00
2023-04-06T11:26:54.330Z,11.80
2023-04-06T11:29:28.359Z,11.50
2023-04-06T11:32:03.273Z,11.20
2023-04-06T11:34:39.823Z,10.80
2023-04-06T11:37:13.134Z,10.70
2023-04-06T11:39:52.905Z,10.60
2023-04-06T11:42:27.463Z,10.60
2023-04-06T11:45:06.359Z,10.50
2023-04-06T11:47:37.597Z,10.40
2023-04-06T11:50:09.656Z,10.20
2023-04-06T11:52:41.254Z,10.40
2023-04-06T11:55:19.707Z,10.40
2023-04-06T11:57:51.668Z,10.30
2023-04-06T12:00:22.927Z,10.00
2023-04-06T12:02:52.643Z,9.80
2023-04-06T12:05:22.120Z,9.60
2023-04-06T12:12:07.357Z,9.50
2023-04-06T12:14:36.735Z,9.40
2023-04-06T12:17:21.368Z,9.50
2023-04-06T12:19:53.275Z,9.50
2023-04-06T12:22:22.719Z,9.40
2023-04-06T12:24:52.273Z,9.30
2023-04-06T12:27:21.626Z,9.10
2023-04-06T12:29:51.902Z,8.90
2023-04-06T12:32:21.313Z,8.60
2023-04-06T12:34:53.599Z,8.40
2023-04-06T12:37:22.915Z,8.40
2023-04-06T12:44:12.994Z,8.40
2023-04-06T12:47:54.046Z,8.30
2023-04-06T12:50:23.608Z,8.10
2023-04-06T12:57:54.155Z,7.80
2023-04-06T13:00:24.068Z,7.50
2023-04-06T13:02:53.692Z,7.50
2023-04-06T13:05:32.495Z,7.50
2023-04-06T13:08:08.907Z,7.60
2023-04-06T13:10:38.358Z,7.70
2023-04-06T13:13:07.673Z,7.90
2023-04-06T13:15:37.554Z,7.90
2023-04-06T13:18:07.213Z,7.80
2023-04-06T13:20:37.124Z,7.80
2023-04-06T13:23:06.435Z,7.80
2023-04-06T13:25:36.111Z,7.90
2023-04-06T13:28:05.573Z,7.90
2023-04-06T13:30:35.113Z,7.40
2023-04-06T13:33:14.682Z,6.90
2023-04-06T13:35:46.947Z,6.60
2023-04-06T13:38:17.308Z,6.50
2023-04-06T13:40:47.034Z,6.40
2023-04-06T13:43:16.869Z,6.50
2023-04-06T13:45:56.002Z,6.30
2023-04-06T13:48:26.628Z,6.10
2023-04-06T13:50:56.198Z,6.00
2023-04-06T13:53:28.673Z,6.10
2023-04-06T13:55:58.086Z,6.20
2023-04-06T13:58:27.580Z,6.10
2023-04-06T14:01:11.247Z,6.00
2023-04-06T14:03:46.355Z,6.20
2023-04-06T14:06:29.585Z,6.40
2023-04-06T14:09:00.750Z,6.40
2023-04-06T14:11:53.368Z,6.40
2023-04-06T14:19:07.742Z,7.00
2023-04-06T14:27:16.896Z,7.00
2023-04-06T14:33:42.859Z,7.40
2023-04-06T14:36:16.096Z,7.20
2023-04-06T14:42:55.376Z,7.50
2023-04-06T14:45:27.600Z,7.40
2023-04-06T14:48:00.382Z,7.50
2023-04-06T14:50:33.717Z,7.20
2023-04-06T14:53:03.488Z,7.00
2023-04-06T14:55:39.777Z,6.70
2023-04-06T15:02:43.627Z,6.20
2023-04-06T15:05:36.501Z,6.10
2023-04-06T15:18:06.228Z,5.80
2023-04-06T15:21:54.288Z,5.80
2023-04-06T15:34:19.030Z,6.20
2023-04-06T15:36:51.457Z,6.30
2023-04-06T15:39:21.138Z,6.40
2023-04-06T15:41:50.543Z,6.50
2023-04-06T15:44:22.730Z,6.70
2023-04-06T15:46:53.528Z,6.70
2023-04-06T15:49:23.168Z,6.60
2023-04-06T15:51:52.831Z,6.60
2023-04-06T15:54:22.299Z,6.60
2023-04-06T15:56:53.860Z,6.50
2023-04-06T15:59:23.245Z,6.60
2023-04-06T16:01:53.428Z,6.70
2023-04-06T16:04:23.792Z,6.70
2023-04-06T16:06:53.463Z,6.40
2023-04-06T16:09:22.785Z,6.30
2023-04-06T16:11:52.406Z,6.30
2023-04-06T16:14:21.976Z,6.20
2023-04-06T16:16:55.243Z,6.10
2023-04-06T16:19:24.927Z,6.00
2023-04-06T16:21:54.523Z,5.90
2023-04-06T16:24:23.895Z,5.80
2023-04-06T16:26:53.837Z,5.60
2023-04-06T16:29:23.735Z,5.60
2023-04-06T16:31:53.949Z,5.70
2023-04-06T16:34:23.759Z,5.60
2023-04-06T16:36:53.139Z,5.60
2023-04-06T16:39:22.524Z,5.60
2023-04-06T16:41:51.772Z,5.50
2023-04-06T16:44:21.686Z,5.40
2023-04-06T16:46:51.251Z,5.40
2023-04-06T16:49:20.989Z,5.30
2023-04-06T18:19:32.354Z,3.20
2023-04-06T18:22:01.715Z,3.20
2023-04-06T18:24:41.992Z,3.20
2023-04-06T18:27:16.218Z,3.30
2023-04-06T18:29:47.664Z,3.30
2023-04-06T18:32:17.136Z,3.30
2023-04-06T18:34:46.808Z,3.40
2023-04-06T18:37:16.533Z,3.40
2023-04-06T18:39:51.027Z,3.40
2023-04-06T18:42:20.926Z,3.50
2023-04-06T18:45:59.461Z,3.50
2023-04-06T18:48:50.327Z,3.50
2023-04-06T18:51:21.764Z,3.60
2023-04-06T18:54:05.027Z,3.70
2023-04-06T18:57:46.561Z,3.60
2023-04-06T19:01:05.673Z,3.40
2023-04-06T19:03:49.139Z,3.40
2023-04-06T19:06:29.159Z,3.30
2023-04-06T19:08:59.045Z,3.30
2023-04-06T19:11:28.453Z,3.30
2023-04-06T19:13:58.177Z,3.30
2023-04-06T19:16:27.839Z,3.20
2023-04-06T19:18:57.643Z,3.20
2023-04-06T19:21:27.581Z,3.30
2023-04-06T19:23:57.275Z,3.30
2023-04-06T19:26:30.605Z,3.30
2023-04-06T19:28:59.951Z,3.30
2023-04-06T19:31:29.313Z,3.30
2023-04-06T19:33:58.673Z,3.30
2023-04-06T19:36:28.545Z,3.40
2023-04-06T19:39:00.340Z,3.40
2023-04-06T19:41:31.534Z,3.40
2023-04-06T19:44:00.971Z,3.40
2023-04-06T19:46:32.846Z,3.50
2023-04-06T19:49:02.190Z,3.50
2023-04-06T19:51:35.514Z,3.50
2023-04-06T19:54:06.261Z,3.50
2023-04-06T19:56:35.693Z,3.60
2023-04-06T19:59:05.503Z,3.70
2023-04-06T20:01:37.952Z,3.70
2023-04-06T20:04:07.921Z,3.80
2023-04-06T20:06:37.436Z,3.80
2023-04-06T20:09:07.019Z,3.70
2023-04-06T20:11:36.411Z,3.70
2023-04-06T20:14:06.077Z,3.80
2023-04-06T20:16:35.514Z,3.90
2023-04-06T20:19:04.909Z,3.90
2023-04-06T20:21:34.148Z,4.00
2023-04-06T20:24:03.613Z,4.00
2023-04-06T20:26:33.972Z,4.10
2023-04-06T20:29:03.358Z,4.20
2023-04-06T20:31:34.133Z,4.30
2023-04-06T20:34:05.618Z,4.30
2023-04-06T20:36:35.866Z,4.40
2023-04-06T20:39:05.252Z,4.40
2023-04-06T20:41:34.981Z,4.40
2023-04-06T20:44:04.278Z,4.40
2023-04-06T20:46:35.479Z,4.30
2023-04-06T20:49:04.981Z,4.20
2023-04-06T20:51:37.388Z,4.20
2023-04-06T20:54:06.884Z,4.10
2023-04-06T20:56:36.217Z,4.10
2023-04-06T20:59:06.353Z,4.20
2023-04-06T21:01:35.965Z,4.20
2023-04-06T21:04:05.957Z,4.10
2023-04-06T21:06:37.342Z,4.10
2023-04-06T21:09:06.571Z,4.10
2023-04-06T21:11:35.861Z,4.10
2023-04-06T21:14:07.207Z,4.10
2023-04-06T21:16:36.748Z,4.00
2023-04-06T21:19:06.000Z,4.00
2023-04-06T21:21:35.437Z,4.00
2023-04-06T21:24:04.917Z,4.00
2023-04-06T21:26:35.292Z,3.90
2023-04-06T21:29:05.282Z,3.80
2023-04-06T21:31:41.385Z,3.80
2023-04-06T21:34:19.684Z,3.80
2023-04-06T21:36:49.188Z,3.80
2023-04-06T21:39:20.939Z,3.90
2023-04-06T21:41:51.184Z,3.90
2023-04-06T21:44:28.527Z,4.00
2023-04-06T21:46:59.913Z,4.10
2023-04-06T21:49:32.437Z,4.00
2023-04-06T21:52:04.235Z,4.00
2023-04-06T21:54:34.062Z,4.00
2023-04-06T21:57:03.361Z,4.10
2023-04-06T21:59:33.262Z,4.10
2023-04-06T22:02:05.948Z,4.10
2023-04-06T22:04:35.957Z,4.00
2023-04-06T22:07:08.598Z,3.90
2023-04-06T22:09:42.246Z,3.80
2023-04-06T22:12:17.199Z,3.80
2023-04-06T22:14:52.825Z,3.70
2023-04-06T22:17:22.131Z,3.70
2023-04-06T22:19:53.208Z,3.70
2023-04-06T22:22:47.516Z,3.60
2023-04-06T22:25:16.958Z,3.70
2023-04-06T22:27:46.253Z,3.80
2023-04-06T22:30:15.565Z,3.90
2023-04-06T22:32:44.858Z,4.00
2023-04-06T22:35:14.218Z,4.00
2023-04-06T22:37:44.301Z,4.10
2023-04-06T22:40:13.945Z,4.20
2023-04-06T22:42:43.436Z,4.20
2023-04-06T22:45:12.661Z,4.30
2023-04-06T22:47:43.818Z,4.30
2023-04-06T22:50:13.313Z,4.40
2023-04-06T22:52:42.604Z,4.40
2023-04-06T22:55:11.894Z,4.20
2023-04-06T22:57:41.674Z,4.10
2023-04-06T23:00:11.917Z,4.00
2023-04-06T23:02:41.194Z,4.00
2023-04-06T23:05:10.567Z,4.00
2023-04-06T23:07:39.815Z,4.00
2023-04-06T23:10:09.623Z,3.90
2023-04-06T23:12:38.866Z,3.90
2023-04-06T23:15:08.737Z,3.90
2023-04-06T23:17:38.233Z,3.80
2023-04-06T23:20:08.125Z,3.80
2023-04-06T23:22:37.422Z,3.80
2023-04-06T23:25:08.103Z,3.80
2023-04-06T23:27:37.561Z,3.80
2023-04-06T23:30:08.414Z,3.80
2023-04-06T23:32:37.751Z,3.90
2023-04-06T23:35:07.685Z,3.90
2023-04-06T23:37:37.022Z,3.80
2023-04-06T23:40:06.968Z,3.80
2023-04-06T23:42:36.273Z,3.80
2023-04-06T23:45:06.314Z,3.80
2023-04-06T23:47:35.917Z,3.90
2023-04-06T23:50:05.779Z,3.90
2023-04-06T23:52:35.040Z,3.90
2023-04-06T23:55:05.356Z,3.80
2023-04-06T23:57:34.585Z,3.90
